sensor_id;sensor_type;location;lat;lon;timestamp;P1;durP1;ratioP1;P2;durP2;ratioP2
19207;SDS011;9737;59.466;18.036;2022-12-20T00:00:51;36.20;;;16.55;;
19207;SDS011;9737;59.466;18.036;2022-12-20T00:03:20;38.42;;;15.77;;
19207;SDS011;9737;59.466;18.036;2022-12-20T00:05:48;34.42;;;16.00;;
19207;SDS011;9737;59.466;18.036;2022-12-20T00:08:16;38.00;;;16.95;;
19207;SDS011;9737;59.466;18.036;2022-12-20T00:10:44;34.03;;;15.25;;
19207;SDS011;9737;59.466;18.036;2022-12-20T00:13:12;35.58;;;16.08;;
19207;SDS011;9737;59.466;18.036;2022-12-20T00:15:40;33.97;;;15.65;;
19207;SDS011;9737;59.466;18.036;2022-12-20T00:18:08;35.53;;;16.55;;
19207;SDS011;9737;59.466;18.036;2022-12-20T00:20:38;34.95;;;16.08;;
19207;SDS011;9737;59.466;18.036;2022-12-20T00:23:06;35.85;;;16.63;;
19207;SDS011;9737;59.466;18.036;2022-12-20T00:25:34;34.38;;;16.85;;
19207;SDS011;9737;59.466;18.036;2022-12-20T00:28:02;34.55;;;16.20;;
19207;SDS011;9737;59.466;18.036;2022-12-20T00:30:30;37.83;;;16.27;;
19207;SDS011;9737;59.466;18.036;2022-12-20T00:32:57;32.60;;;15.75;;
19207;SDS011;9737;59.466;18.036;2022-12-20T00:35:25;33.63;;;15.15;;
19207;SDS011;9737;59.466;18.036;2022-12-20T00:37:54;30.95;;;15.00;;
19207;SDS011;9737;59.466;18.036;2022-12-20T00:40:22;31.67;;;14.68;;
19207;SDS011;9737;59.466;18.036;2022-12-20T00:42:50;34.40;;;16.20;;
19207;SDS011;9737;59.466;18.036;2022-12-20T00:45:18;29.30;;;13.73;;
19207;SDS011;9737;59.466;18.036;2022-12-20T00:47:47;27.83;;;14.02;;
19207;SDS011;9737;59.466;18.036;2022-12-20T00:50:15;35.22;;;15.50;;
19207;SDS011;9737;59.466;18.036;2022-12-20T00:52:43;30.48;;;14.35;;
19207;SDS011;9737;59.466;18.036;2022-12-20T00:55:12;32.95;;;14.52;;
19207;SDS011;9737;59.466;18.036;2022-12-20T00:57:40;29.33;;;14.77;;
19207;SDS011;9737;59.466;18.036;2022-12-20T01:00:09;29.85;;;14.45;;
19207;SDS011;9737;59.466;18.036;2022-12-20T01:02:37;32.83;;;15.50;;
19207;SDS011;9737;59.466;18.036;2022-12-20T01:05:06;32.17;;;15.27;;
19207;SDS011;9737;59.466;18.036;2022-12-20T01:07:34;29.27;;;14.52;;
19207;SDS011;9737;59.466;18.036;2022-12-20T01:10:02;31.48;;;15.40;;
19207;SDS011;9737;59.466;18.036;2022-12-20T01:12:32;32.97;;;15.02;;
19207;SDS011;9737;59.466;18.036;2022-12-20T01:15:00;31.73;;;15.52;;
19207;SDS011;9737;59.466;18.036;2022-12-20T01:17:28;36.15;;;14.85;;
19207;SDS011;9737;59.466;18.036;2022-12-20T01:19:55;36.33;;;15.45;;
19207;SDS011;9737;59.466;18.036;2022-12-20T01:22:23;34.17;;;15.68;;
19207;SDS011;9737;59.466;18.036;2022-12-20T01:24:51;36.28;;;15.57;;
19207;SDS011;9737;59.466;18.036;2022-12-20T01:27:19;39.35;;;16.83;;
19207;SDS011;9737;59.466;18.036;2022-12-20T01:29:49;38.05;;;16.02;;
19207;SDS011;9737;59.466;18.036;2022-12-20T01:32:18;41.70;;;17.73;;
19207;SDS011;9737;59.466;18.036;2022-12-20T01:34:46;38.10;;;16.38;;
19207;SDS011;9737;59.466;18.036;2022-12-20T01:37:14;39.30;;;17.13;;
19207;SDS011;9737;59.466;18.036;2022-12-20T01:39:41;40.42;;;18.23;;
19207;SDS011;9737;59.466;18.036;2022-12-20T01:42:11;37.78;;;16.55;;
19207;SDS011;9737;59.466;18.036;2022-12-20T01:44:55;41.05;;;17.13;;
19207;SDS011;9737;59.466;18.036;2022-12-20T01:47:25;46.60;;;18.48;;
19207;SDS011;9737;59.466;18.036;2022-12-20T01:49:58;42.47;;;18.83;;
19207;SDS011;9737;59.466;18.036;2022-12-20T01:52:31;46.30;;;18.90;;
19207;SDS011;9737;59.466;18.036;2022-12-20T01:55:03;46.05;;;18.55;;
19207;SDS011;9737;59.466;18.036;2022-12-20T01:57:36;50.83;;;18.85;;
19207;SDS011;9737;59.466;18.036;2022-12-20T02:00:09;46.08;;;18.77;;
19207;SDS011;9737;59.466;18.036;2022-12-20T02:02:38;45.13;;;18.60;;
19207;SDS011;9737;59.466;18.036;2022-12-20T02:05:07;45.80;;;18.55;;
19207;SDS011;9737;59.466;18.036;2022-12-20T02:07:35;48.58;;;20.05;;
19207;SDS011;9737;59.466;18.036;2022-12-20T02:10:05;49.00;;;18.92;;
19207;SDS011;9737;59.466;18.036;2022-12-20T02:12:37;45.05;;;18.65;;
19207;SDS011;9737;59.466;18.036;2022-12-20T02:15:13;51.00;;;20.48;;
19207;SDS011;9737;59.466;18.036;2022-12-20T02:17:52;48.47;;;20.92;;
19207;SDS011;9737;59.466;18.036;2022-12-20T02:20:36;45.40;;;19.42;;
19207;SDS011;9737;59.466;18.036;2022-12-20T02:23:31;53.63;;;20.75;;
19207;SDS011;9737;59.466;18.036;2022-12-20T02:26:15;47.78;;;20.17;;
19207;SDS011;9737;59.466;18.036;2022-12-20T02:29:07;55.58;;;20.27;;
19207;SDS011;9737;59.466;18.036;2022-12-20T02:31:48;48.10;;;19.45;;
19207;SDS011;9737;59.466;18.036;2022-12-20T02:34:22;54.63;;;21.65;;
19207;SDS011;9737;59.466;18.036;2022-12-20T02:36:52;51.13;;;19.77;;
19207;SDS011;9737;59.466;18.036;2022-12-20T02:39:20;52.95;;;21.05;;
19207;SDS011;9737;59.466;18.036;2022-12-20T02:41:50;55.80;;;20.90;;
19207;SDS011;9737;59.466;18.036;2022-12-20T02:44:21;54.60;;;20.58;;
19207;SDS011;9737;59.466;18.036;2022-12-20T02:47:13;52.38;;;20.52;;
19207;SDS011;9737;59.466;18.036;2022-12-20T02:49:46;47.42;;;20.77;;
19207;SDS011;9737;59.466;18.036;2022-12-20T02:52:17;48.08;;;19.83;;
19207;SDS011;9737;59.466;18.036;2022-12-20T02:54:47;52.70;;;19.95;;
19207;SDS011;9737;59.466;18.036;2022-12-20T02:57:15;50.03;;;19.80;;
19207;SDS011;9737;59.466;18.036;2022-12-20T02:59:50;53.20;;;20.65;;
19207;SDS011;9737;59.466;18.036;2022-12-20T03:02:26;50.20;;;18.83;;
19207;SDS011;9737;59.466;18.036;2022-12-20T03:04:54;58.65;;;20.90;;
19207;SDS011;9737;59.466;18.036;2022-12-20T03:07:25;57.42;;;21.17;;
19207;SDS011;9737;59.466;18.036;2022-12-20T03:09:55;55.33;;;22.67;;
19207;SDS011;9737;59.466;18.036;2022-12-20T03:12:23;51.45;;;21.02;;
19207;SDS011;9737;59.466;18.036;2022-12-20T03:14:51;51.67;;;20.73;;
19207;SDS011;9737;59.466;18.036;2022-12-20T03:17:19;55.22;;;20.85;;
19207;SDS011;9737;59.466;18.036;2022-12-20T03:19:48;57.08;;;21.48;;
19207;SDS011;9737;59.466;18.036;2022-12-20T03:22:16;49.05;;;20.65;;
19207;SDS011;9737;59.466;18.036;2022-12-20T03:24:44;51.85;;;21.13;;
19207;SDS011;9737;59.466;18.036;2022-12-20T03:27:12;58.20;;;21.10;;
19207;SDS011;9737;59.466;18.036;2022-12-20T03:29:40;54.08;;;21.10;;
19207;SDS011;9737;59.466;18.036;2022-12-20T03:32:08;50.25;;;20.25;;
19207;SDS011;9737;59.466;18.036;2022-12-20T03:34:35;48.90;;;19.75;;
19207;SDS011;9737;59.466;18.036;2022-12-20T03:37:04;55.83;;;22.48;;
19207;SDS011;9737;59.466;18.036;2022-12-20T03:39:32;48.45;;;20.52;;
19207;SDS011;9737;59.466;18.036;2022-12-20T03:42:00;55.50;;;21.50;;
19207;SDS011;9737;59.466;18.036;2022-12-20T03:44:28;52.85;;;21.88;;
19207;SDS011;9737;59.466;18.036;2022-12-20T03:46:56;52.05;;;20.90;;
19207;SDS011;9737;59.466;18.036;2022-12-20T03:49:24;51.35;;;21.35;;
19207;SDS011;9737;59.466;18.036;2022-12-20T03:51:52;53.05;;;21.00;;
19207;SDS011;9737;59.466;18.036;2022-12-20T03:54:21;56.58;;;21.73;;
19207;SDS011;9737;59.466;18.036;2022-12-20T03:56:49;58.20;;;22.08;;
19207;SDS011;9737;59.466;18.036;2022-12-20T03:59:17;48.88;;;20.30;;
19207;SDS011;9737;59.466;18.036;2022-12-20T04:01:45;54.83;;;20.40;;
19207;SDS011;9737;59.466;18.036;2022-12-20T04:04:13;60.35;;;22.42;;
19207;SDS011;9737;59.466;18.036;2022-12-20T04:06:42;52.25;;;22.60;;
19207;SDS011;9737;59.466;18.036;2022-12-20T04:09:10;55.88;;;21.95;;
19207;SDS011;9737;59.466;18.036;2022-12-20T04:11:39;58.53;;;22.95;;
19207;SDS011;9737;59.466;18.036;2022-12-20T04:14:07;53.20;;;22.38;;
19207;SDS011;9737;59.466;18.036;2022-12-20T04:16:35;61.35;;;21.50;;
19207;SDS011;9737;59.466;18.036;2022-12-20T04:19:03;53.83;;;22.02;;
19207;SDS011;9737;59.466;18.036;2022-12-20T04:21:32;53.08;;;21.63;;
19207;SDS011;9737;59.466;18.036;2022-12-20T04:24:01;49.83;;;21.25;;
19207;SDS011;9737;59.466;18.036;2022-12-20T04:26:30;52.38;;;22.05;;
19207;SDS011;9737;59.466;18.036;2022-12-20T04:28:59;60.92;;;24.00;;
19207;SDS011;9737;59.466;18.036;2022-12-20T04:31:27;55.50;;;22.45;;
19207;SDS011;9737;59.466;18.036;2022-12-20T04:33:55;57.70;;;22.80;;
19207;SDS011;9737;59.466;18.036;2022-12-20T04:36:23;60.42;;;24.88;;
19207;SDS011;9737;59.466;18.036;2022-12-20T04:38:51;61.30;;;24.20;;
19207;SDS011;9737;59.466;18.036;2022-12-20T04:41:20;56.30;;;22.77;;
19207;SDS011;9737;59.466;18.036;2022-12-20T04:43:53;56.47;;;23.23;;
19207;SDS011;9737;59.466;18.036;2022-12-20T04:46:24;63.88;;;24.48;;
19207;SDS011;9737;59.466;18.036;2022-12-20T04:48:52;57.05;;;24.00;;
19207;SDS011;9737;59.466;18.036;2022-12-20T04:51:24;56.53;;;22.75;;
19207;SDS011;9737;59.466;18.036;2022-12-20T04:53:53;58.53;;;22.85;;
19207;SDS011;9737;59.466;18.036;2022-12-20T04:56:21;57.85;;;23.35;;
19207;SDS011;9737;59.466;18.036;2022-12-20T04:58:52;49.80;;;21.13;;
19207;SDS011;9737;59.466;18.036;2022-12-20T05:01:21;52.08;;;21.20;;
19207;SDS011;9737;59.466;18.036;2022-12-20T05:03:50;57.50;;;22.85;;
19207;SDS011;9737;59.466;18.036;2022-12-20T05:06:19;48.97;;;20.67;;
19207;SDS011;9737;59.466;18.036;2022-12-20T05:08:46;48.88;;;20.48;;
19207;SDS011;9737;59.466;18.036;2022-12-20T05:11:16;48.05;;;20.58;;
19207;SDS011;9737;59.466;18.036;2022-12-20T05:13:44;47.70;;;19.77;;
19207;SDS011;9737;59.466;18.036;2022-12-20T05:16:12;46.85;;;19.63;;
19207;SDS011;9737;59.466;18.036;2022-12-20T05:18:40;43.60;;;19.33;;
19207;SDS011;9737;59.466;18.036;2022-12-20T05:21:15;48.85;;;19.85;;
19207;SDS011;9737;59.466;18.036;2022-12-20T05:24:01;44.63;;;18.90;;
19207;SDS011;9737;59.466;18.036;2022-12-20T05:26:46;42.67;;;18.42;;
19207;SDS011;9737;59.466;18.036;2022-12-20T05:29:14;42.92;;;18.30;;
19207;SDS011;9737;59.466;18.036;2022-12-20T05:31:43;42.50;;;18.33;;
19207;SDS011;9737;59.466;18.036;2022-12-20T05:34:10;44.45;;;19.67;;
19207;SDS011;9737;59.466;18.036;2022-12-20T05:36:40;47.70;;;18.73;;
19207;SDS011;9737;59.466;18.036;2022-12-20T05:39:08;45.88;;;19.08;;
19207;SDS011;9737;59.466;18.036;2022-12-20T05:41:37;37.90;;;16.60;;
19207;SDS011;9737;59.466;18.036;2022-12-20T05:44:06;41.17;;;17.83;;
19207;SDS011;9737;59.466;18.036;2022-12-20T05:46:34;45.78;;;17.90;;
19207;SDS011;9737;59.466;18.036;2022-12-20T05:49:02;38.55;;;17.20;;
19207;SDS011;9737;59.466;18.036;2022-12-20T05:51:30;39.33;;;17.85;;
19207;SDS011;9737;59.466;18.036;2022-12-20T05:53:59;43.72;;;17.60;;
19207;SDS011;9737;59.466;18.036;2022-12-20T05:56:27;36.22;;;16.38;;
19207;SDS011;9737;59.466;18.036;2022-12-20T05:58:54;42.03;;;15.95;;
19207;SDS011;9737;59.466;18.036;2022-12-20T06:01:24;37.67;;;17.45;;
19207;SDS011;9737;59.466;18.036;2022-12-20T06:03:52;41.20;;;15.75;;
19207;SDS011;9737;59.466;18.036;2022-12-20T06:06:20;34.70;;;15.40;;
19207;SDS011;9737;59.466;18.036;2022-12-20T06:08:48;41.20;;;15.93;;
19207;SDS011;9737;59.466;18.036;2022-12-20T06:11:17;37.33;;;16.08;;
19207;SDS011;9737;59.466;18.036;2022-12-20T06:13:53;34.03;;;15.23;;
19207;SDS011;9737;59.466;18.036;2022-12-20T06:16:20;30.52;;;14.15;;
19207;SDS011;9737;59.466;18.036;2022-12-20T06:18:49;36.35;;;15.95;;
19207;SDS011;9737;59.466;18.036;2022-12-20T06:21:17;35.25;;;16.25;;
19207;SDS011;9737;59.466;18.036;2022-12-20T06:23:44;34.80;;;15.38;;
19207;SDS011;9737;59.466;18.036;2022-12-20T06:26:12;33.13;;;15.15;;
19207;SDS011;9737;59.466;18.036;2022-12-20T06:28:42;34.95;;;16.23;;
19207;SDS011;9737;59.466;18.036;2022-12-20T06:31:10;34.08;;;15.35;;
19207;SDS011;9737;59.466;18.036;2022-12-20T06:33:38;36.05;;;14.57;;
19207;SDS011;9737;59.466;18.036;2022-12-20T06:36:06;32.78;;;13.48;;
19207;SDS011;9737;59.466;18.036;2022-12-20T06:38:34;34.03;;;15.57;;
19207;SDS011;9737;59.466;18.036;2022-12-20T06:41:02;33.72;;;14.48;;
19207;SDS011;9737;59.466;18.036;2022-12-20T06:43:30;36.92;;;15.77;;
19207;SDS011;9737;59.466;18.036;2022-12-20T06:45:59;30.42;;;15.15;;
19207;SDS011;9737;59.466;18.036;2022-12-20T06:48:27;36.10;;;14.82;;
19207;SDS011;9737;59.466;18.036;2022-12-20T06:50:56;33.58;;;14.65;;
19207;SDS011;9737;59.466;18.036;2022-12-20T06:53:24;28.10;;;13.63;;
19207;SDS011;9737;59.466;18.036;2022-12-20T06:55:51;30.70;;;15.05;;
19207;SDS011;9737;59.466;18.036;2022-12-20T06:58:20;32.65;;;15.32;;
19207;SDS011;9737;59.466;18.036;2022-12-20T07:00:48;31.27;;;15.35;;
19207;SDS011;9737;59.466;18.036;2022-12-20T07:03:17;30.17;;;14.00;;
19207;SDS011;9737;59.466;18.036;2022-12-20T07:05:49;30.23;;;14.02;;
19207;SDS011;9737;59.466;18.036;2022-12-20T07:08:18;31.40;;;13.57;;
19207;SDS011;9737;59.466;18.036;2022-12-20T07:10:46;34.42;;;14.82;;
19207;SDS011;9737;59.466;18.036;2022-12-20T07:13:14;31.60;;;13.75;;
19207;SDS011;9737;59.466;18.036;2022-12-20T07:15:43;35.55;;;15.23;;
19207;SDS011;9737;59.466;18.036;2022-12-20T07:18:11;31.73;;;14.32;;
19207;SDS011;9737;59.466;18.036;2022-12-20T07:20:40;31.73;;;14.90;;
19207;SDS011;9737;59.466;18.036;2022-12-20T07:23:08;31.55;;;13.95;;
19207;SDS011;9737;59.466;18.036;2022-12-20T07:25:36;32.30;;;14.63;;
19207;SDS011;9737;59.466;18.036;2022-12-20T07:28:03;29.90;;;14.00;;
19207;SDS011;9737;59.466;18.036;2022-12-20T07:30:32;29.25;;;13.48;;
19207;SDS011;9737;59.466;18.036;2022-12-20T07:32:59;31.35;;;13.93;;
19207;SDS011;9737;59.466;18.036;2022-12-20T07:35:27;29.00;;;14.00;;
19207;SDS011;9737;59.466;18.036;2022-12-20T07:37:57;36.03;;;14.15;;
19207;SDS011;9737;59.466;18.036;2022-12-20T07:40:24;35.28;;;14.45;;
19207;SDS011;9737;59.466;18.036;2022-12-20T07:42:52;32.08;;;13.75;;
19207;SDS011;9737;59.466;18.036;2022-12-20T07:45:20;30.45;;;14.48;;
19207;SDS011;9737;59.466;18.036;2022-12-20T07:47:48;31.75;;;14.55;;
19207;SDS011;9737;59.466;18.036;2022-12-20T07:50:16;36.67;;;14.45;;
19207;SDS011;9737;59.466;18.036;2022-12-20T07:52:44;34.00;;;13.85;;
19207;SDS011;9737;59.466;18.036;2022-12-20T07:55:14;34.40;;;14.80;;
19207;SDS011;9737;59.466;18.036;2022-12-20T07:57:43;29.85;;;13.63;;
19207;SDS011;9737;59.466;18.036;2022-12-20T08:00:15;30.40;;;14.05;;
19207;SDS011;9737;59.466;18.036;2022-12-20T08:02:45;30.95;;;14.70;;
19207;SDS011;9737;59.466;18.036;2022-12-20T08:05:19;33.25;;;14.23;;
19207;SDS011;9737;59.466;18.036;2022-12-20T08:07:47;32.88;;;14.52;;
19207;SDS011;9737;59.466;18.036;2022-12-20T08:10:25;30.00;;;14.65;;
19207;SDS011;9737;59.466;18.036;2022-12-20T08:12:53;28.65;;;13.68;;
19207;SDS011;9737;59.466;18.036;2022-12-20T08:15:22;27.65;;;14.38;;
19207;SDS011;9737;59.466;18.036;2022-12-20T08:17:51;28.65;;;14.40;;
19207;SDS011;9737;59.466;18.036;2022-12-20T08:20:19;31.00;;;14.38;;
19207;SDS011;9737;59.466;18.036;2022-12-20T08:22:47;31.73;;;14.10;;
19207;SDS011;9737;59.466;18.036;2022-12-20T08:25:15;29.02;;;13.57;;
19207;SDS011;9737;59.466;18.036;2022-12-20T08:27:44;30.17;;;13.65;;
19207;SDS011;9737;59.466;18.036;2022-12-20T08:30:12;26.45;;;13.23;;
19207;SDS011;9737;59.466;18.036;2022-12-20T08:32:40;27.10;;;13.20;;
19207;SDS011;9737;59.466;18.036;2022-12-20T08:35:09;32.17;;;13.98;;
19207;SDS011;9737;59.466;18.036;2022-12-20T08:37:38;28.77;;;13.65;;
19207;SDS011;9737;59.466;18.036;2022-12-20T08:40:07;30.23;;;13.38;;
19207;SDS011;9737;59.466;18.036;2022-12-20T08:42:36;28.95;;;13.32;;
19207;SDS011;9737;59.466;18.036;2022-12-20T08:45:06;29.17;;;13.15;;
19207;SDS011;9737;59.466;18.036;2022-12-20T08:47:34;25.95;;;12.50;;
19207;SDS011;9737;59.466;18.036;2022-12-20T08:50:01;24.48;;;12.50;;
19207;SDS011;9737;59.466;18.036;2022-12-20T08:52:30;24.27;;;12.93;;
19207;SDS011;9737;59.466;18.036;2022-12-20T08:54:59;26.67;;;12.23;;
19207;SDS011;9737;59.466;18.036;2022-12-20T08:57:29;28.30;;;13.77;;
19207;SDS011;9737;59.466;18.036;2022-12-20T08:59:57;24.45;;;12.52;;
19207;SDS011;9737;59.466;18.036;2022-12-20T09:02:26;29.85;;;12.52;;
19207;SDS011;9737;59.466;18.036;2022-12-20T09:04:54;24.52;;;12.77;;
19207;SDS011;9737;59.466;18.036;2022-12-20T09:07:22;28.75;;;13.48;;
19207;SDS011;9737;59.466;18.036;2022-12-20T09:09:50;26.38;;;12.95;;
19207;SDS011;9737;59.466;18.036;2022-12-20T09:12:18;25.70;;;13.25;;
19207;SDS011;9737;59.466;18.036;2022-12-20T09:14:46;30.25;;;12.98;;
19207;SDS011;9737;59.466;18.036;2022-12-20T09:17:13;29.40;;;12.75;;
19207;SDS011;9737;59.466;18.036;2022-12-20T09:19:43;28.13;;;13.18;;
19207;SDS011;9737;59.466;18.036;2022-12-20T09:22:10;27.25;;;13.05;;
19207;SDS011;9737;59.466;18.036;2022-12-20T09:24:38;25.58;;;12.65;;
19207;SDS011;9737;59.466;18.036;2022-12-20T09:27:06;26.55;;;12.77;;
19207;SDS011;9737;59.466;18.036;2022-12-20T09:29:34;30.42;;;13.68;;
19207;SDS011;9737;59.466;18.036;2022-12-20T09:32:02;30.60;;;13.70;;
19207;SDS011;9737;59.466;18.036;2022-12-20T09:34:30;29.00;;;13.15;;
19207;SDS011;9737;59.466;18.036;2022-12-20T09:36:59;27.40;;;12.90;;
19207;SDS011;9737;59.466;18.036;2022-12-20T09:39:27;25.70;;;13.23;;
19207;SDS011;9737;59.466;18.036;2022-12-20T09:41:55;31.90;;;13.63;;
19207;SDS011;9737;59.466;18.036;2022-12-20T09:44:25;30.77;;;13.10;;
19207;SDS011;9737;59.466;18.036;2022-12-20T09:46:58;33.85;;;13.38;;
19207;SDS011;9737;59.466;18.036;2022-12-20T09:49:36;26.63;;;11.65;;
19207;SDS011;9737;59.466;18.036;2022-12-20T09:52:18;25.02;;;12.52;;
19207;SDS011;9737;59.466;18.036;2022-12-20T09:54:59;33.60;;;12.75;;
19207;SDS011;9737;59.466;18.036;2022-12-20T09:57:40;26.60;;;12.90;;
19207;SDS011;9737;59.466;18.036;2022-12-20T10:00:19;25.13;;;12.65;;
19207;SDS011;9737;59.466;18.036;2022-12-20T10:02:47;28.95;;;13.05;;
19207;SDS011;9737;59.466;18.036;2022-12-20T10:05:37;23.98;;;11.75;;
19207;SDS011;9737;59.466;18.036;2022-12-20T10:08:16;26.20;;;12.60;;
19207;SDS011;9737;59.466;18.036;2022-12-20T10:10:53;25.80;;;13.05;;
19207;SDS011;9737;59.466;18.036;2022-12-20T10:13:24;22.77;;;11.20;;
19207;SDS011;9737;59.466;18.036;2022-12-20T10:16:04;26.58;;;12.52;;
19207;SDS011;9737;59.466;18.036;2022-12-20T10:18:44;24.90;;;11.73;;
19207;SDS011;9737;59.466;18.036;2022-12-20T10:21:25;23.90;;;12.27;;
19207;SDS011;9737;59.466;18.036;2022-12-20T10:24:07;27.13;;;13.13;;
19207;SDS011;9737;59.466;18.036;2022-12-20T10:26:38;22.23;;;12.05;;
19207;SDS011;9737;59.466;18.036;2022-12-20T10:29:07;30.73;;;12.20;;
19207;SDS011;9737;59.466;18.036;2022-12-20T10:31:35;23.20;;;12.50;;
19207;SDS011;9737;59.466;18.036;2022-12-20T10:34:03;24.25;;;12.52;;
19207;SDS011;9737;59.466;18.036;2022-12-20T10:36:31;26.88;;;12.25;;
19207;SDS011;9737;59.466;18.036;2022-12-20T10:39:01;30.08;;;12.25;;
19207;SDS011;9737;59.466;18.036;2022-12-20T10:41:32;22.30;;;11.57;;
19207;SDS011;9737;59.466;18.036;2022-12-20T10:44:15;25.50;;;11.07;;
19207;SDS011;9737;59.466;18.036;2022-12-20T10:46:48;23.63;;;11.68;;
19207;SDS011;9737;59.466;18.036;2022-12-20T10:49:20;23.40;;;11.50;;
19207;SDS011;9737;59.466;18.036;2022-12-20T10:51:53;23.02;;;11.35;;
19207;SDS011;9737;59.466;18.036;2022-12-20T10:54:23;22.75;;;11.00;;
19207;SDS011;9737;59.466;18.036;2022-12-20T10:56:58;23.55;;;11.95;;
19207;SDS011;9737;59.466;18.036;2022-12-20T10:59:29;23.42;;;11.68;;
19207;SDS011;9737;59.466;18.036;2022-12-20T11:02:02;26.40;;;12.82;;
19207;SDS011;9737;59.466;18.036;2022-12-20T11:05:15;26.88;;;12.55;;
19207;SDS011;9737;59.466;18.036;2022-12-20T11:07:52;26.23;;;11.98;;
19207;SDS011;9737;59.466;18.036;2022-12-20T11:10:42;24.80;;;11.98;;
19207;SDS011;9737;59.466;18.036;2022-12-20T11:13:20;24.48;;;11.60;;
19207;SDS011;9737;59.466;18.036;2022-12-20T11:15:52;22.13;;;11.23;;
19207;SDS011;9737;59.466;18.036;2022-12-20T11:18:26;25.45;;;13.20;;
19207;SDS011;9737;59.466;18.036;2022-12-20T11:21:08;21.75;;;11.27;;
19207;SDS011;9737;59.466;18.036;2022-12-20T11:23:54;23.92;;;11.82;;
19207;SDS011;9737;59.466;18.036;2022-12-20T11:26:33;23.13;;;12.00;;
19207;SDS011;9737;59.466;18.036;2022-12-20T11:29:14;21.13;;;10.23;;
19207;SDS011;9737;59.466;18.036;2022-12-20T11:31:56;21.80;;;11.15;;
19207;SDS011;9737;59.466;18.036;2022-12-20T11:34:36;23.65;;;12.10;;
19207;SDS011;9737;59.466;18.036;2022-12-20T11:37:19;23.77;;;12.10;;
19207;SDS011;9737;59.466;18.036;2022-12-20T11:42:52;20.40;;;11.07;;
19207;SDS011;9737;59.466;18.036;2022-12-20T11:45:29;19.40;;;11.38;;
19207;SDS011;9737;59.466;18.036;2022-12-20T11:48:27;21.15;;;10.98;;
19207;SDS011;9737;59.466;18.036;2022-12-20T11:51:09;27.65;;;13.80;;
19207;SDS011;9737;59.466;18.036;2022-12-20T11:53:49;25.83;;;14.13;;
19207;SDS011;9737;59.466;18.036;2022-12-20T11:56:23;23.52;;;12.43;;
19207;SDS011;9737;59.466;18.036;2022-12-20T11:58:56;22.60;;;11.80;;
19207;SDS011;9737;59.466;18.036;2022-12-20T12:01:36;24.42;;;11.82;;
19207;SDS011;9737;59.466;18.036;2022-12-20T12:04:10;22.88;;;11.65;;
19207;SDS011;9737;59.466;18.036;2022-12-20T12:06:42;22.25;;;11.20;;
19207;SDS011;9737;59.466;18.036;2022-12-20T12:09:15;24.20;;;12.43;;
19207;SDS011;9737;59.466;18.036;2022-12-20T12:11:49;23.27;;;11.73;;
19207;SDS011;9737;59.466;18.036;2022-12-20T12:14:36;19.42;;;11.10;;
19207;SDS011;9737;59.466;18.036;2022-12-20T12:17:15;23.67;;;11.85;;
19207;SDS011;9737;59.466;18.036;2022-12-20T12:19:50;25.25;;;11.98;;
19207;SDS011;9737;59.466;18.036;2022-12-20T12:22:25;25.80;;;13.00;;
19207;SDS011;9737;59.466;18.036;2022-12-20T12:25:00;23.98;;;12.18;;
19207;SDS011;9737;59.466;18.036;2022-12-20T12:27:35;23.23;;;11.60;;
19207;SDS011;9737;59.466;18.036;2022-12-20T12:30:05;22.95;;;12.02;;
19207;SDS011;9737;59.466;18.036;2022-12-20T12:32:40;24.35;;;12.93;;
19207;SDS011;9737;59.466;18.036;2022-12-20T12:35:16;27.00;;;12.93;;
19207;SDS011;9737;59.466;18.036;2022-12-20T12:38:14;27.98;;;12.77;;
19207;SDS011;9737;59.466;18.036;2022-12-20T12:44:19;23.20;;;12.05;;
19207;SDS011;9737;59.466;18.036;2022-12-20T12:46:58;19.60;;;10.77;;
19207;SDS011;9737;59.466;18.036;2022-12-20T12:49:30;28.50;;;12.07;;
19207;SDS011;9737;59.466;18.036;2022-12-20T12:52:00;21.05;;;11.70;;
19207;SDS011;9737;59.466;18.036;2022-12-20T12:54:34;24.45;;;11.70;;
19207;SDS011;9737;59.466;18.036;2022-12-20T12:57:06;21.48;;;12.05;;
19207;SDS011;9737;59.466;18.036;2022-12-20T12:59:40;22.52;;;11.55;;
19207;SDS011;9737;59.466;18.036;2022-12-20T13:08:15;22.33;;;11.35;;
19207;SDS011;9737;59.466;18.036;2022-12-20T13:13:38;33.85;;;13.40;;
19207;SDS011;9737;59.466;18.036;2022-12-20T13:16:10;24.88;;;12.25;;
19207;SDS011;9737;59.466;18.036;2022-12-20T13:18:56;28.27;;;13.85;;
19207;SDS011;9737;59.466;18.036;2022-12-20T13:21:37;29.35;;;15.48;;
19207;SDS011;9737;59.466;18.036;2022-12-20T13:24:29;26.77;;;13.95;;
19207;SDS011;9737;59.466;18.036;2022-12-20T13:27:03;28.77;;;14.10;;
19207;SDS011;9737;59.466;18.036;2022-12-20T13:29:52;24.15;;;11.43;;
19207;SDS011;9737;59.466;18.036;2022-12-20T13:35:27;27.13;;;12.07;;
19207;SDS011;9737;59.466;18.036;2022-12-20T13:37:57;25.13;;;11.80;;
19207;SDS011;9737;59.466;18.036;2022-12-20T13:40:33;23.40;;;12.65;;
19207;SDS011;9737;59.466;18.036;2022-12-20T13:43:05;22.33;;;11.85;;
19207;SDS011;9737;59.466;18.036;2022-12-20T13:45:46;22.63;;;12.35;;
19207;SDS011;9737;59.466;18.036;2022-12-20T13:48:16;22.45;;;11.77;;
19207;SDS011;9737;59.466;18.036;2022-12-20T13:50:47;22.65;;;11.65;;
19207;SDS011;9737;59.466;18.036;2022-12-20T13:53:18;22.05;;;11.48;;
19207;SDS011;9737;59.466;18.036;2022-12-20T13:55:49;18.95;;;10.90;;
19207;SDS011;9737;59.466;18.036;2022-12-20T13:58:19;19.55;;;11.63;;
19207;SDS011;9737;59.466;18.036;2022-12-20T14:00:49;22.35;;;11.68;;
19207;SDS011;9737;59.466;18.036;2022-12-20T14:03:20;23.90;;;11.25;;
19207;SDS011;9737;59.466;18.036;2022-12-20T14:05:52;27.63;;;11.15;;
19207;SDS011;9737;59.466;18.036;2022-12-20T14:08:25;23.08;;;12.15;;
19207;SDS011;9737;59.466;18.036;2022-12-20T14:11:06;24.30;;;11.13;;
19207;SDS011;9737;59.466;18.036;2022-12-20T14:13:36;28.30;;;11.23;;
19207;SDS011;9737;59.466;18.036;2022-12-20T14:16:09;20.85;;;11.18;;
19207;SDS011;9737;59.466;18.036;2022-12-20T14:18:40;23.38;;;11.90;;
19207;SDS011;9737;59.466;18.036;2022-12-20T14:21:13;25.23;;;12.52;;
19207;SDS011;9737;59.466;18.036;2022-12-20T14:23:43;21.95;;;10.93;;
19207;SDS011;9737;59.466;18.036;2022-12-20T14:26:15;25.52;;;12.45;;
19207;SDS011;9737;59.466;18.036;2022-12-20T14:28:45;23.58;;;12.00;;
19207;SDS011;9737;59.466;18.036;2022-12-20T14:31:22;31.33;;;13.95;;
19207;SDS011;9737;59.466;18.036;2022-12-20T14:33:59;33.83;;;14.88;;
19207;SDS011;9737;59.466;18.036;2022-12-20T14:36:30;39.97;;;15.38;;
19207;SDS011;9737;59.466;18.036;2022-12-20T14:38:59;32.17;;;13.70;;
19207;SDS011;9737;59.466;18.036;2022-12-20T14:41:33;32.13;;;15.07;;
19207;SDS011;9737;59.466;18.036;2022-12-20T14:44:10;29.35;;;13.50;;
19207;SDS011;9737;59.466;18.036;2022-12-20T14:46:46;30.52;;;13.93;;
19207;SDS011;9737;59.466;18.036;2022-12-20T14:49:16;26.77;;;12.52;;
19207;SDS011;9737;59.466;18.036;2022-12-20T14:51:48;33.03;;;15.05;;
19207;SDS011;9737;59.466;18.036;2022-12-20T14:54:17;25.27;;;12.30;;
19207;SDS011;9737;59.466;18.036;2022-12-20T14:57:14;26.35;;;12.27;;
19207;SDS011;9737;59.466;18.036;2022-12-20T14:59:56;27.30;;;13.20;;
19207;SDS011;9737;59.466;18.036;2022-12-20T15:02:35;35.42;;;13.48;;
19207;SDS011;9737;59.466;18.036;2022-12-20T15:08:11;29.73;;;14.65;;